sensor_id;sensor_type;location;lat;lon;timestamp;P1;durP1;ratioP1;P2;durP2;ratioP2
31906;SDS011;18455;50.858;13.662;2022-11-15T00:02:58;27.77;;;18.03;;
31906;SDS011;18455;50.858;13.662;2022-11-15T00:08:17;26.73;;;17.00;;
31906;SDS011;18455;50.858;13.662;2022-11-15T00:13:36;28.17;;;18.53;;
31906;SDS011;18455;50.858;13.662;2022-11-15T00:18:55;24.47;;;16.83;;
31906;SDS011;18455;50.858;13.662;2022-11-15T00:24:16;25.97;;;16.80;;
31906;SDS011;18455;50.858;13.662;2022-11-15T00:29:35;27.07;;;17.00;;
31906;SDS011;18455;50.858;13.662;2022-11-15T00:34:56;24.30;;;16.33;;
31906;SDS011;18455;50.858;13.662;2022-11-15T00:40:15;24.13;;;15.80;;
31906;SDS011;18455;50.858;13.662;2022-11-15T00:45:34;24.13;;;16.10;;
31906;SDS011;18455;50.858;13.662;2022-11-15T00:50:53;27.23;;;16.17;;
31906;SDS011;18455;50.858;13.662;2022-11-15T00:56:12;24.33;;;15.33;;
31906;SDS011;18455;50.858;13.662;2022-11-15T01:01:30;24.07;;;13.93;;
31906;SDS011;18455;50.858;13.662;2022-11-15T01:06:49;21.10;;;13.63;;
31906;SDS011;18455;50.858;13.662;2022-11-15T01:12:08;23.10;;;15.13;;
31906;SDS011;18455;50.858;13.662;2022-11-15T01:17:27;27.17;;;14.80;;
31906;SDS011;18455;50.858;13.662;2022-11-15T01:22:46;25.17;;;15.47;;
31906;SDS011;18455;50.858;13.662;2022-11-15T01:28:05;24.93;;;15.10;;
31906;SDS011;18455;50.858;13.662;2022-11-15T01:33:24;25.40;;;17.37;;
31906;SDS011;18455;50.858;13.662;2022-11-15T01:38:43;28.13;;;15.97;;
31906;SDS011;18455;50.858;13.662;2022-11-15T01:50:03;25.80;;;13.97;;
31906;SDS011;18455;50.858;13.662;2022-11-15T01:55:25;25.30;;;15.37;;
31906;SDS011;18455;50.858;13.662;2022-11-15T02:00:44;22.70;;;15.17;;
31906;SDS011;18455;50.858;13.662;2022-11-15T02:06:03;23.67;;;13.87;;
31906;SDS011;18455;50.858;13.662;2022-11-15T02:11:23;19.27;;;12.80;;
31906;SDS011;18455;50.858;13.662;2022-11-15T02:22:35;20.17;;;11.13;;
31906;SDS011;18455;50.858;13.662;2022-11-15T02:33:53;19.97;;;10.50;;
31906;SDS011;18455;50.858;13.662;2022-11-15T02:44:42;22.00;;;12.93;;
31906;SDS011;18455;50.858;13.662;2022-11-15T02:50:07;17.27;;;10.47;;
31906;SDS011;18455;50.858;13.662;2022-11-15T02:55:29;14.27;;;8.90;;
31906;SDS011;18455;50.858;13.662;2022-11-15T03:00:52;25.37;;;12.03;;
31906;SDS011;18455;50.858;13.662;2022-11-15T03:06:30;22.50;;;13.20;;
31906;SDS011;18455;50.858;13.662;2022-11-15T03:11:57;18.33;;;11.40;;
31906;SDS011;18455;50.858;13.662;2022-11-15T03:22:48;20.10;;;11.93;;
31906;SDS011;18455;50.858;13.662;2022-11-15T03:28:08;20.90;;;12.67;;
31906;SDS011;18455;50.858;13.662;2022-11-15T03:33:34;25.17;;;12.77;;
31906;SDS011;18455;50.858;13.662;2022-11-15T03:39:01;20.97;;;11.67;;
31906;SDS011;18455;50.858;13.662;2022-11-15T03:44:40;22.00;;;11.90;;
31906;SDS011;18455;50.858;13.662;2022-11-15T03:50:02;20.70;;;11.07;;
31906;SDS011;18455;50.858;13.662;2022-11-15T03:55:25;17.77;;;10.50;;
31906;SDS011;18455;50.858;13.662;2022-11-15T04:00:44;17.73;;;11.07;;
31906;SDS011;18455;50.858;13.662;2022-11-15T04:06:03;16.83;;;10.77;;
31906;SDS011;18455;50.858;13.662;2022-11-15T04:11:22;19.37;;;11.00;;
31906;SDS011;18455;50.858;13.662;2022-11-15T04:16:41;17.63;;;10.00;;
31906;SDS011;18455;50.858;13.662;2022-11-15T04:21:59;18.30;;;10.47;;
31906;SDS011;18455;50.858;13.662;2022-11-15T04:27:37;16.00;;;10.07;;
31906;SDS011;18455;50.858;13.662;2022-11-15T04:32:56;20.20;;;10.10;;
31906;SDS011;18455;50.858;13.662;2022-11-15T04:38:15;11.87;;;8.10;;
31906;SDS011;18455;50.858;13.662;2022-11-15T04:43:34;16.37;;;9.60;;
31906;SDS011;18455;50.858;13.662;2022-11-15T04:48:53;16.57;;;8.43;;
31906;SDS011;18455;50.858;13.662;2022-11-15T04:54:13;22.83;;;9.53;;
31906;SDS011;18455;50.858;13.662;2022-11-15T04:59:31;14.13;;;8.33;;
31906;SDS011;18455;50.858;13.662;2022-11-15T05:04:50;15.07;;;8.43;;
31906;SDS011;18455;50.858;13.662;2022-11-15T05:10:09;14.77;;;8.13;;
31906;SDS011;18455;50.858;13.662;2022-11-15T05:15:28;16.33;;;8.90;;
31906;SDS011;18455;50.858;13.662;2022-11-15T05:20:47;15.67;;;8.87;;
31906;SDS011;18455;50.858;13.662;2022-11-15T05:26:07;11.80;;;8.13;;
31906;SDS011;18455;50.858;13.662;2022-11-15T05:31:26;15.77;;;9.00;;
31906;SDS011;18455;50.858;13.662;2022-11-15T05:36:45;14.37;;;9.30;;
31906;SDS011;18455;50.858;13.662;2022-11-15T05:47:25;11.47;;;7.47;;
31906;SDS011;18455;50.858;13.662;2022-11-15T05:52:46;13.83;;;8.30;;
31906;SDS011;18455;50.858;13.662;2022-11-15T05:58:05;13.10;;;8.00;;
31906;SDS011;18455;50.858;13.662;2022-11-15T06:03:24;15.33;;;8.87;;
31906;SDS011;18455;50.858;13.662;2022-11-15T06:08:43;14.67;;;8.60;;
31906;SDS011;18455;50.858;13.662;2022-11-15T06:14:02;13.60;;;6.97;;
31906;SDS011;18455;50.858;13.662;2022-11-15T06:19:21;15.00;;;7.33;;
31906;SDS011;18455;50.858;13.662;2022-11-15T06:24:40;14.63;;;8.10;;
31906;SDS011;18455;50.858;13.662;2022-11-15T06:29:59;13.53;;;7.63;;
31906;SDS011;18455;50.858;13.662;2022-11-15T06:35:18;14.80;;;7.60;;
31906;SDS011;18455;50.858;13.662;2022-11-15T06:40:37;11.23;;;7.07;;
31906;SDS011;18455;50.858;13.662;2022-11-15T06:46:03;9.97;;;6.53;;
31906;SDS011;18455;50.858;13.662;2022-11-15T06:51:23;10.27;;;6.30;;
31906;SDS011;18455;50.858;13.662;2022-11-15T06:56:42;16.17;;;7.83;;
31906;SDS011;18455;50.858;13.662;2022-11-15T07:02:01;12.77;;;7.50;;
31906;SDS011;18455;50.858;13.662;2022-11-15T07:07:20;14.10;;;6.80;;
31906;SDS011;18455;50.858;13.662;2022-11-15T07:12:39;10.67;;;7.13;;
31906;SDS011;18455;50.858;13.662;2022-11-15T07:18:00;13.90;;;7.17;;
31906;SDS011;18455;50.858;13.662;2022-11-15T07:23:19;12.90;;;7.07;;
31906;SDS011;18455;50.858;13.662;2022-11-15T07:28:38;11.50;;;6.33;;
31906;SDS011;18455;50.858;13.662;2022-11-15T07:33:57;12.23;;;7.10;;
31906;SDS011;18455;50.858;13.662;2022-11-15T07:39:16;9.83;;;6.43;;
31906;SDS011;18455;50.858;13.662;2022-11-15T07:44:35;9.77;;;6.57;;
31906;SDS011;18455;50.858;13.662;2022-11-15T07:49:54;10.13;;;6.70;;
31906;SDS011;18455;50.858;13.662;2022-11-15T07:55:13;13.40;;;6.90;;
31906;SDS011;18455;50.858;13.662;2022-11-15T08:00:32;11.97;;;5.57;;
31906;SDS011;18455;50.858;13.662;2022-11-15T08:05:51;11.10;;;5.73;;
31906;SDS011;18455;50.858;13.662;2022-11-15T08:11:10;6.00;;;4.67;;
31906;SDS011;18455;50.858;13.662;2022-11-15T08:16:29;12.23;;;5.50;;
31906;SDS011;18455;50.858;13.662;2022-11-15T08:21:48;7.17;;;4.07;;
31906;SDS011;18455;50.858;13.662;2022-11-15T08:27:07;5.30;;;4.30;;
31906;SDS011;18455;50.858;13.662;2022-11-15T08:32:33;7.57;;;3.33;;
31906;SDS011;18455;50.858;13.662;2022-11-15T08:37:52;7.50;;;3.97;;
31906;SDS011;18455;50.858;13.662;2022-11-15T08:43:11;6.18;;;3.70;;
31906;SDS011;18455;50.858;13.662;2022-11-15T08:48:30;5.15;;;2.70;;
31906;SDS011;18455;50.858;13.662;2022-11-15T08:53:49;3.10;;;2.38;;
31906;SDS011;18455;50.858;13.662;2022-11-15T08:59:08;4.78;;;2.30;;
31906;SDS011;18455;50.858;13.662;2022-11-15T09:04:27;3.58;;;2.20;;
31906;SDS011;18455;50.858;13.662;2022-11-15T09:09:46;2.80;;;1.83;;
31906;SDS011;18455;50.858;13.662;2022-11-15T09:15:05;3.60;;;1.95;;
31906;SDS011;18455;50.858;13.662;2022-11-15T09:20:24;4.53;;;2.28;;
31906;SDS011;18455;50.858;13.662;2022-11-15T09:25:43;5.93;;;2.70;;
31906;SDS011;18455;50.858;13.662;2022-11-15T09:31:03;2.88;;;2.42;;
31906;SDS011;18455;50.858;13.662;2022-11-15T09:36:23;4.00;;;2.08;;
31906;SDS011;18455;50.858;13.662;2022-11-15T09:52:28;5.47;;;2.45;;
31906;SDS011;18455;50.858;13.662;2022-11-15T09:57:31;3.75;;;2.10;;
31906;SDS011;18455;50.858;13.662;2022-11-15T10:02:40;2.75;;;1.90;;
31906;SDS011;18455;50.858;13.662;2022-11-15T10:12:51;1.95;;;1.60;;
31906;SDS011;18455;50.858;13.662;2022-11-15T10:23:21;2.10;;;1.80;;
31906;SDS011;18455;50.858;13.662;2022-11-15T10:28:27;4.32;;;1.83;;
31906;SDS011;18455;50.858;13.662;2022-11-15T10:33:32;4.43;;;2.38;;
31906;SDS011;18455;50.858;13.662;2022-11-15T10:49:12;2.95;;;2.10;;
31906;SDS011;18455;50.858;13.662;2022-11-15T10:54:25;2.45;;;1.67;;
31906;SDS011;18455;50.858;13.662;2022-11-15T10:59:29;4.25;;;1.60;;
31906;SDS011;18455;50.858;13.662;2022-11-15T11:04:35;5.32;;;1.88;;
31906;SDS011;18455;50.858;13.662;2022-11-15T11:09:57;3.03;;;1.52;;
31906;SDS011;18455;50.858;13.662;2022-11-15T11:14:59;2.38;;;1.80;;
31906;SDS011;18455;50.858;13.662;2022-11-15T11:20:12;3.10;;;1.98;;
31906;SDS011;18455;50.858;13.662;2022-11-15T11:25:36;2.10;;;1.50;;
31906;SDS011;18455;50.858;13.662;2022-11-15T11:30:55;2.63;;;1.48;;
31906;SDS011;18455;50.858;13.662;2022-11-15T11:35:59;3.00;;;1.58;;
31906;SDS011;18455;50.858;13.662;2022-11-15T11:51:49;2.47;;;1.20;;
31906;SDS011;18455;50.858;13.662;2022-11-15T11:56:53;3.42;;;1.52;;
31906;SDS011;18455;50.858;13.662;2022-11-15T12:01:54;1.42;;;1.15;;
31906;SDS011;18455;50.858;13.662;2022-11-15T12:12:19;2.10;;;1.42;;
31906;SDS011;18455;50.858;13.662;2022-11-15T12:17:26;3.03;;;1.60;;
31906;SDS011;18455;50.858;13.662;2022-11-15T12:22:44;2.10;;;1.60;;
31906;SDS011;18455;50.858;13.662;2022-11-15T12:38:56;5.47;;;1.23;;
31906;SDS011;18455;50.858;13.662;2022-11-15T12:43:57;2.53;;;1.63;;
31906;SDS011;18455;50.858;13.662;2022-11-15T12:49:03;4.90;;;1.70;;
31906;SDS011;18455;50.858;13.662;2022-11-15T12:59:47;5.72;;;1.58;;
31906;SDS011;18455;50.858;13.662;2022-11-15T13:04:53;4.38;;;1.77;;
31906;SDS011;18455;50.858;13.662;2022-11-15T13:09:55;2.65;;;1.40;;
31906;SDS011;18455;50.858;13.662;2022-11-15T13:30:27;4.60;;;1.73;;
31906;SDS011;18455;50.858;13.662;2022-11-15T13:35:28;5.22;;;2.38;;
31906;SDS011;18455;50.858;13.662;2022-11-15T13:40:35;3.53;;;1.95;;
31906;SDS011;18455;50.858;13.662;2022-11-15T13:45:36;2.55;;;2.05;;
31906;SDS011;18455;50.858;13.662;2022-11-15T13:50:37;2.92;;;1.77;;
31906;SDS011;18455;50.858;13.662;2022-11-15T13:55:38;4.15;;;1.98;;
31906;SDS011;18455;50.858;13.662;2022-11-15T14:00:39;4.82;;;2.47;;
31906;SDS011;18455;50.858;13.662;2022-11-15T14:05:43;4.40;;;1.70;;
31906;SDS011;18455;50.858;13.662;2022-11-15T14:11:13;4.75;;;1.85;;
31906;SDS011;18455;50.858;13.662;2022-11-15T14:16:19;3.85;;;1.40;;
31906;SDS011;18455;50.858;13.662;2022-11-15T14:21:21;5.15;;;3.75;;
31906;SDS011;18455;50.858;13.662;2022-11-15T14:26:28;6.60;;;4.20;;
31906;SDS011;18455;50.858;13.662;2022-11-15T14:31:30;11.50;;;7.03;;
31906;SDS011;18455;50.858;13.662;2022-11-15T14:36:31;9.20;;;6.05;;
31906;SDS011;18455;50.858;13.662;2022-11-15T14:41:34;9.07;;;4.97;;
31906;SDS011;18455;50.858;13.662;2022-11-15T14:46:37;9.95;;;4.72;;
31906;SDS011;18455;50.858;13.662;2022-11-15T14:51:38;6.45;;;4.25;;
31906;SDS011;18455;50.858;13.662;2022-11-15T14:56:38;20.63;;;10.88;;
31906;SDS011;18455;50.858;13.662;2022-11-15T15:01:38;21.02;;;12.23;;
31906;SDS011;18455;50.858;13.662;2022-11-15T15:06:39;47.40;;;17.17;;
31906;SDS011;18455;50.858;13.662;2022-11-15T15:11:39;121.03;;;45.17;;
31906;SDS011;18455;50.858;13.662;2022-11-15T15:16:40;124.60;;;41.93;;
31906;SDS011;18455;50.858;13.662;2022-11-15T15:21:40;15.07;;;6.20;;
31906;SDS011;18455;50.858;13.662;2022-11-15T15:26:41;11.63;;;6.13;;
31906;SDS011;18455;50.858;13.662;2022-11-15T15:31:43;7.17;;;4.40;;
31906;SDS011;18455;50.858;13.662;2022-11-15T15:36:43;9.43;;;5.23;;
31906;SDS011;18455;50.858;13.662;2022-11-15T15:41:44;8.03;;;5.10;;
31906;SDS011;18455;50.858;13.662;2022-11-15T15:46:44;8.27;;;5.07;;
31906;SDS011;18455;50.858;13.662;2022-11-15T15:51:44;9.67;;;4.73;;
31906;SDS011;18455;50.858;13.662;2022-11-15T15:56:45;11.20;;;4.63;;
31906;SDS011;18455;50.858;13.662;2022-11-15T16:01:45;8.57;;;4.63;;
31906;SDS011;18455;50.858;13.662;2022-11-15T16:06:46;9.77;;;5.43;;
31906;SDS011;18455;50.858;13.662;2022-11-15T16:11:46;10.50;;;5.93;;
31906;SDS011;18455;50.858;13.662;2022-11-15T16:16:47;10.50;;;6.47;;
31906;SDS011;18455;50.858;13.662;2022-11-15T16:21:47;13.50;;;7.10;;
31906;SDS011;18455;50.858;13.662;2022-11-15T16:26:48;8.80;;;5.53;;
31906;SDS011;18455;50.858;13.662;2022-11-15T16:31:48;19.17;;;10.07;;
31906;SDS011;18455;50.858;13.662;2022-11-15T16:36:49;153.83;;;77.07;;
31906;SDS011;18455;50.858;13.662;2022-11-15T16:41:50;138.63;;;65.97;;
31906;SDS011;18455;50.858;13.662;2022-11-15T16:46:50;104.30;;;55.27;;
31906;SDS011;18455;50.858;13.662;2022-11-15T16:51:51;51.23;;;31.60;;
31906;SDS011;18455;50.858;13.662;2022-11-15T16:56:52;24.90;;;16.37;;
31906;SDS011;18455;50.858;13.662;2022-11-15T17:01:52;19.53;;;13.40;;
31906;SDS011;18455;50.858;13.662;2022-11-15T17:06:53;13.57;;;7.73;;
31906;SDS011;18455;50.858;13.662;2022-11-15T17:11:53;10.67;;;6.20;;
31906;SDS011;18455;50.858;13.662;2022-11-15T17:16:53;9.10;;;5.37;;
31906;SDS011;18455;50.858;13.662;2022-11-15T17:21:54;11.07;;;6.20;;
31906;SDS011;18455;50.858;13.662;2022-11-15T17:26:55;9.73;;;6.33;;
31906;SDS011;18455;50.858;13.662;2022-11-15T17:31:55;9.57;;;6.83;;
31906;SDS011;18455;50.858;13.662;2022-11-15T17:36:55;10.17;;;6.10;;
31906;SDS011;18455;50.858;13.662;2022-11-15T17:41:56;6.40;;;4.97;;
31906;SDS011;18455;50.858;13.662;2022-11-15T17:46:56;38.07;;;20.73;;
31906;SDS011;18455;50.858;13.662;2022-11-15T17:51:57;10.73;;;6.43;;
31906;SDS011;18455;50.858;13.662;2022-11-15T17:56:57;9.87;;;4.97;;
31906;SDS011;18455;50.858;13.662;2022-11-15T18:01:58;14.77;;;7.83;;
31906;SDS011;18455;50.858;13.662;2022-11-15T18:06:58;8.93;;;5.20;;
31906;SDS011;18455;50.858;13.662;2022-11-15T18:11:58;5.97;;;4.20;;
31906;SDS011;18455;50.858;13.662;2022-11-15T18:16:59;11.40;;;4.20;;
31906;SDS011;18455;50.858;13.662;2022-11-15T18:21:59;8.10;;;4.87;;
31906;SDS011;18455;50.858;13.662;2022-11-15T18:27:01;6.20;;;4.13;;
31906;SDS011;18455;50.858;13.662;2022-11-15T18:32:03;7.83;;;3.53;;
31906;SDS011;18455;50.858;13.662;2022-11-15T18:37:09;8.63;;;4.90;;
31906;SDS011;18455;50.858;13.662;2022-11-15T18:42:10;6.80;;;4.47;;
31906;SDS011;18455;50.858;13.662;2022-11-15T18:47:10;5.67;;;3.97;;
31906;SDS011;18455;50.858;13.662;2022-11-15T18:52:11;5.43;;;4.33;;
31906;SDS011;18455;50.858;13.662;2022-11-15T18:57:11;7.00;;;4.53;;
31906;SDS011;18455;50.858;13.662;2022-11-15T19:02:11;7.57;;;5.17;;
31906;SDS011;18455;50.858;13.662;2022-11-15T19:07:12;8.67;;;4.53;;
31906;SDS011;18455;50.858;13.662;2022-11-15T19:12:12;9.37;;;4.23;;
31906;SDS011;18455;50.858;13.662;2022-11-15T19:17:12;11.87;;;5.53;;
31906;SDS011;18455;50.858;13.662;2022-11-15T19:22:13;13.00;;;8.07;;
31906;SDS011;18455;50.858;13.662;2022-11-15T19:27:13;9.17;;;4.57;;
31906;SDS011;18455;50.858;13.662;2022-11-15T19:32:14;9.07;;;6.20;;
31906;SDS011;18455;50.858;13.662;2022-11-15T19:37:14;32.10;;;15.63;;
31906;SDS011;18455;50.858;13.662;2022-11-15T19:42:14;12.37;;;7.83;;
31906;SDS011;18455;50.858;13.662;2022-11-15T19:47:15;13.67;;;10.87;;
31906;SDS011;18455;50.858;13.662;2022-11-15T19:52:15;39.97;;;20.57;;
31906;SDS011;18455;50.858;13.662;2022-11-15T19:57:15;15.97;;;9.37;;
31906;SDS011;18455;50.858;13.662;2022-11-15T20:02:16;15.33;;;6.67;;
31906;SDS011;18455;50.858;13.662;2022-11-15T20:07:16;21.97;;;13.43;;
31906;SDS011;18455;50.858;13.662;2022-11-15T20:12:17;23.00;;;11.73;;
31906;SDS011;18455;50.858;13.662;2022-11-15T20:17:17;7.10;;;4.43;;
31906;SDS011;18455;50.858;13.662;2022-11-15T20:22:17;7.47;;;4.70;;
31906;SDS011;18455;50.858;13.662;2022-11-15T20:27:18;9.77;;;7.07;;
31906;SDS011;18455;50.858;13.662;2022-11-15T20:32:19;13.23;;;6.30;;
31906;SDS011;18455;50.858;13.662;2022-11-15T20:37:19;7.53;;;5.33;;
31906;SDS011;18455;50.858;13.662;2022-11-15T20:42:20;8.53;;;5.30;;
31906;SDS011;18455;50.858;13.662;2022-11-15T20:47:20;11.07;;;7.13;;
31906;SDS011;18455;50.858;13.662;2022-11-15T20:52:20;10.00;;;5.30;;
31906;SDS011;18455;50.858;13.662;2022-11-15T20:57:21;10.07;;;5.60;;
31906;SDS011;18455;50.858;13.662;2022-11-15T21:02:21;8.80;;;5.10;;
31906;SDS011;18455;50.858;13.662;2022-11-15T21:07:21;9.47;;;5.37;;
31906;SDS011;18455;50.858;13.662;2022-11-15T21:12:22;9.27;;;5.60;;
31906;SDS011;18455;50.858;13.662;2022-11-15T21:17:22;7.63;;;5.40;;
31906;SDS011;18455;50.858;13.662;2022-11-15T21:22:23;9.67;;;5.90;;
31906;SDS011;18455;50.858;13.662;2022-11-15T21:27:24;17.80;;;11.07;;
31906;SDS011;18455;50.858;13.662;2022-11-15T21:32:24;22.30;;;11.03;;
31906;SDS011;18455;50.858;13.662;2022-11-15T21:37:25;11.53;;;7.03;;
31906;SDS011;18455;50.858;13.662;2022-11-15T21:42:25;21.43;;;8.73;;
31906;SDS011;18455;50.858;13.662;2022-11-15T21:47:25;16.00;;;9.30;;
31906;SDS011;18455;50.858;13.662;2022-11-15T21:52:26;18.20;;;12.10;;
31906;SDS011;18455;50.858;13.662;2022-11-15T21:57:26;17.97;;;9.83;;
31906;SDS011;18455;50.858;13.662;2022-11-15T22:02:29;14.20;;;8.43;;
31906;SDS011;18455;50.858;13.662;2022-11-15T22:07:29;12.77;;;8.00;;
31906;SDS011;18455;50.858;13.662;2022-11-15T22:12:29;16.93;;;9.00;;
31906;SDS011;18455;50.858;13.662;2022-11-15T22:17:30;12.90;;;8.57;;
31906;SDS011;18455;50.858;13.662;2022-11-15T22:22:49;13.17;;;8.27;;
31906;SDS011;18455;50.858;13.662;2022-11-15T22:27:50;10.67;;;8.00;;
31906;SDS011;18455;50.858;13.662;2022-11-15T22:32:51;13.00;;;8.23;;
31906;SDS011;18455;50.858;13.662;2022-11-15T22:37:51;11.30;;;7.83;;
31906;SDS011;18455;50.858;13.662;2022-11-15T22:42:51;16.40;;;7.50;;
31906;SDS011;18455;50.858;13.662;2022-11-15T22:47:52;13.53;;;8.10;;
31906;SDS011;18455;50.858;13.662;2022-11-15T22:52:53;15.33;;;8.83;;
31906;SDS011;18455;50.858;13.662;2022-11-15T22:57:53;19.90;;;8.67;;
31906;SDS011;18455;50.858;13.662;2022-11-15T23:02:53;12.43;;;6.93;;
31906;SDS011;18455;50.858;13.662;2022-11-15T23:07:54;8.40;;;5.90;;
31906;SDS011;18455;50.858;13.662;2022-11-15T23:12:55;11.07;;;6.50;;
31906;SDS011;18455;50.858;13.662;2022-11-15T23:18:17;8.17;;;5.37;;
31906;SDS011;18455;50.858;13.662;2022-11-15T23:23:18;7.87;;;4.63;;
31906;SDS011;18455;50.858;13.662;2022-11-15T23:28:18;7.53;;;5.20;;
31906;SDS011;18455;50.858;13.662;2022-11-15T23:33:19;8.37;;;6.00;;
31906;SDS011;18455;50.858;13.662;2022-11-15T23:38:38;6.90;;;5.30;;
31906;SDS011;18455;50.858;13.662;2022-11-15T23:43:39;9.40;;;6.10;;
31906;SDS011;18455;50.858;13.662;2022-11-15T23:48:40;12.27;;;8.53;;
31906;SDS011;18455;50.858;13.662;2022-11-15T23:53:41;8.70;;;6.10;;
31906;SDS011;18455;50.858;13.662;2022-11-15T23:58:42;9.07;;;5.00;;
